sensor_id;sensor_type;location;lat;lon;timestamp;pressure;altitude;pressure_sealevel;temperature;humidity
34297;BME280;20564;42.902;25.336;2023-04-27T00:01:11;96819.41;;;9.26;100.00
34297;BME280;20564;42.902;25.336;2023-04-27T00:03:48;96809.44;;;9.20;100.00
34297;BME280;20564;42.902;25.336;2023-04-27T00:06:17;96816.34;;;9.21;100.00
34297;BME280;20564;42.902;25.336;2023-04-27T00:08:44;96817.44;;;9.28;100.00
34297;BME280;20564;42.902;25.336;2023-04-27T00:11:13;96816.78;;;9.26;100.00
34297;BME280;20564;42.902;25.336;2023-04-27T00:13:43;96820.38;;;9.25;100.00
34297;BME280;20564;42.902;25.336;2023-04-27T00:16:29;96827.16;;;9.18;100.00
34297;BME280;20564;42.902;25.336;2023-04-27T00:19:01;96831.56;;;9.17;100.00
34297;BME280;20564;42.902;25.336;2023-04-27T00:21:33;96831.56;;;9.27;100.00
34297;BME280;20564;42.902;25.336;2023-04-27T00:24:01;96827.97;;;9.18;100.00
34297;BME280;20564;42.902;25.336;2023-04-27T00:26:35;96823.97;;;9.14;100.00
34297;BME280;20564;42.902;25.336;2023-04-27T00:29:02;96829.63;;;9.10;100.00
34297;BME280;20564;42.902;25.336;2023-04-27T00:31:42;96829.22;;;9.05;100.00
34297;BME280;20564;42.902;25.336;2023-04-27T00:34:26;96840.56;;;9.15;100.00
34297;BME280;20564;42.902;25.336;2023-04-27T00:37:01;96832.41;;;9.18;100.00
34297;BME280;20564;42.902;25.336;2023-04-27T00:39:39;96851.47;;;9.10;100.00
34297;BME280;20564;42.902;25.336;2023-04-27T00:42:10;96857.25;;;9.14;100.00
34297;BME280;20564;42.902;25.336;2023-04-27T00:44:47;96844.13;;;9.14;100.00
34297;BME280;20564;42.902;25.336;2023-04-27T00:47:15;96845.13;;;9.13;100.00
34297;BME280;20564;42.902;25.336;2023-04-27T00:49:49;96852.44;;;9.19;100.00
34297;BME280;20564;42.902;25.336;2023-04-27T00:53:07;96857.72;;;9.00;100.00
34297;BME280;20564;42.902;25.336;2023-04-27T00:55:37;96858.66;;;8.99;100.00
34297;BME280;20564;42.902;25.336;2023-04-27T00:58:05;96865.00;;;9.06;100.00
34297;BME280;20564;42.902;25.336;2023-04-27T01:00:34;96868.06;;;9.11;100.00
34297;BME280;20564;42.902;25.336;2023-04-27T01:03:03;96862.94;;;9.09;100.00
34297;BME280;20564;42.902;25.336;2023-04-27T01:05:31;96868.06;;;9.11;100.00
34297;BME280;20564;42.902;25.336;2023-04-27T01:07:59;96871.50;;;9.02;100.00
34297;BME280;20564;42.902;25.336;2023-04-27T01:10:27;96869.84;;;9.01;100.00
34297;BME280;20564;42.902;25.336;2023-04-27T01:12:54;96881.34;;;9.00;100.00
34297;BME280;20564;42.902;25.336;2023-04-27T01:15:22;96886.59;;;9.00;100.00
34297;BME280;20564;42.902;25.336;2023-04-27T01:17:57;96881.75;;;9.05;100.00
34297;BME280;20564;42.902;25.336;2023-04-27T01:20:25;96886.00;;;9.06;100.00
34297;BME280;20564;42.902;25.336;2023-04-27T01:22:57;96880.75;;;9.06;100.00
34297;BME280;20564;42.902;25.336;2023-04-27T01:25:27;96889.75;;;9.13;100.00
34297;BME280;20564;42.902;25.336;2023-04-27T01:27:55;96889.19;;;9.19;100.00
34297;BME280;20564;42.902;25.336;2023-04-27T01:30:22;96895.00;;;9.23;100.00
34297;BME280;20564;42.902;25.336;2023-04-27T01:32:52;96904.09;;;9.28;100.00
34297;BME280;20564;42.902;25.336;2023-04-27T01:35:19;96900.09;;;9.24;100.00
34297;BME280;20564;42.902;25.336;2023-04-27T01:37:47;96904.25;;;9.17;100.00
34297;BME280;20564;42.902;25.336;2023-04-27T01:40:15;96894.31;;;9.11;100.00
34297;BME280;20564;42.902;25.336;2023-04-27T01:42:45;96898.59;;;9.12;100.00
34297;BME280;20564;42.902;25.336;2023-04-27T01:45:15;96905.78;;;9.10;100.00
34297;BME280;20564;42.902;25.336;2023-04-27T01:47:49;96905.91;;;8.99;100.00
34297;BME280;20564;42.902;25.336;2023-04-27T01:50:45;96911.44;;;8.96;100.00
34297;BME280;20564;42.902;25.336;2023-04-27T01:53:16;96913.63;;;8.81;100.00
34297;BME280;20564;42.902;25.336;2023-04-27T01:55:43;96905.91;;;8.79;100.00
34297;BME280;20564;42.902;25.336;2023-04-27T01:58:11;96909.22;;;8.81;100.00
34297;BME280;20564;42.902;25.336;2023-04-27T02:00:38;96910.88;;;8.82;100.00
34297;BME280;20564;42.902;25.336;2023-04-27T02:03:06;96910.84;;;8.73;100.00
34297;BME280;20564;42.902;25.336;2023-04-27T02:05:43;96906.53;;;8.62;100.00
34297;BME280;20564;42.902;25.336;2023-04-27T02:08:12;96910.41;;;8.58;100.00
34297;BME280;20564;42.902;25.336;2023-04-27T02:10:42;96910.00;;;8.53;100.00
34297;BME280;20564;42.902;25.336;2023-04-27T02:13:10;96915.50;;;8.50;100.00
34297;BME280;20564;42.902;25.336;2023-04-27T02:15:41;96925.03;;;8.51;100.00
34297;BME280;20564;42.902;25.336;2023-04-27T02:18:11;96917.16;;;8.51;100.00
34297;BME280;20564;42.902;25.336;2023-04-27T02:20:41;96922.97;;;8.54;100.00
34297;BME280;20564;42.902;25.336;2023-04-27T02:23:09;96926.00;;;8.50;100.00
34297;BME280;20564;42.902;25.336;2023-04-27T02:25:37;96921.16;;;8.45;100.00
34297;BME280;20564;42.902;25.336;2023-04-27T02:28:05;96920.84;;;8.38;100.00
34297;BME280;20564;42.902;25.336;2023-04-27T02:30:33;96920.50;;;8.32;100.00
34297;BME280;20564;42.902;25.336;2023-04-27T02:33:00;96919.94;;;8.28;100.00
34297;BME280;20564;42.902;25.336;2023-04-27T02:35:27;96925.47;;;8.25;100.00
34297;BME280;20564;42.902;25.336;2023-04-27T02:37:55;96923.09;;;8.22;100.00
34297;BME280;20564;42.902;25.336;2023-04-27T02:40:23;96924.06;;;8.21;100.00
34297;BME280;20564;42.902;25.336;2023-04-27T02:42:50;96934.66;;;8.10;100.00
34297;BME280;20564;42.902;25.336;2023-04-27T02:45:31;96937.53;;;8.07;100.00
34297;BME280;20564;42.902;25.336;2023-04-27T02:48:05;96938.31;;;7.97;100.00
34297;BME280;20564;42.902;25.336;2023-04-27T02:50:33;96940.22;;;7.95;100.00
34297;BME280;20564;42.902;25.336;2023-04-27T02:53:02;96947.91;;;7.87;100.00
34297;BME280;20564;42.902;25.336;2023-04-27T02:55:36;96950.78;;;7.84;100.00
34297;BME280;20564;42.902;25.336;2023-04-27T02:58:03;96949.13;;;7.83;100.00
34297;BME280;20564;42.902;25.336;2023-04-27T03:00:32;96949.97;;;7.84;100.00
34297;BME280;20564;42.902;25.336;2023-04-27T03:03:06;96946.84;;;7.90;100.00
34297;BME280;20564;42.902;25.336;2023-04-27T03:05:34;96953.78;;;7.80;100.00
34297;BME280;20564;42.902;25.336;2023-04-27T03:08:07;96962.72;;;7.77;100.00
34297;BME280;20564;42.902;25.336;2023-04-27T03:10:34;96951.81;;;7.72;100.00
34297;BME280;20564;42.902;25.336;2023-04-27T03:13:02;96962.66;;;7.67;100.00
34297;BME280;20564;42.902;25.336;2023-04-27T03:15:29;96970.22;;;7.61;100.00
34297;BME280;20564;42.902;25.336;2023-04-27T03:18:02;96966.44;;;7.54;100.00
34297;BME280;20564;42.902;25.336;2023-04-27T03:20:29;96977.41;;;7.47;100.00
34297;BME280;20564;42.902;25.336;2023-04-27T03:22:55;96974.38;;;7.42;100.00
34297;BME280;20564;42.902;25.336;2023-04-27T03:25:22;96978.16;;;7.38;100.00
34297;BME280;20564;42.902;25.336;2023-04-27T03:27:49;96985.38;;;7.25;100.00
34297;BME280;20564;42.902;25.336;2023-04-27T03:30:23;96993.91;;;7.27;100.00
34297;BME280;20564;42.902;25.336;2023-04-27T03:32:51;96998.28;;;7.38;100.00
34297;BME280;20564;42.902;25.336;2023-04-27T03:35:18;96997.94;;;7.42;100.00
34297;BME280;20564;42.902;25.336;2023-04-27T03:37:45;96998.56;;;7.56;100.00
34297;BME280;20564;42.902;25.336;2023-04-27T03:40:15;96999.16;;;7.59;100.00
34297;BME280;20564;42.902;25.336;2023-04-27T03:42:42;96999.22;;;7.69;100.00
34297;BME280;20564;42.902;25.336;2023-04-27T03:45:10;96997.03;;;7.74;100.00
34297;BME280;20564;42.902;25.336;2023-04-27T03:47:40;96999.38;;;7.56;100.00
34297;BME280;20564;42.902;25.336;2023-04-27T03:50:08;96994.34;;;7.43;100.00
34297;BME280;20564;42.902;25.336;2023-04-27T03:52:35;96994.94;;;7.47;100.00
34297;BME280;20564;42.902;25.336;2023-04-27T03:55:03;96997.34;;;7.39;100.00
34297;BME280;20564;42.902;25.336;2023-04-27T03:57:30;96995.31;;;7.31;100.00
34297;BME280;20564;42.902;25.336;2023-04-27T03:59:58;97003.91;;;7.33;100.00
34297;BME280;20564;42.902;25.336;2023-04-27T04:02:25;97004.38;;;7.27;100.00
34297;BME280;20564;42.902;25.336;2023-04-27T04:04:56;97007.47;;;7.32;100.00
34297;BME280;20564;42.902;25.336;2023-04-27T04:07:27;97006.72;;;7.41;100.00
34297;BME280;20564;42.902;25.336;2023-04-27T04:09:54;97017.53;;;7.48;100.00
34297;BME280;20564;42.902;25.336;2023-04-27T04:12:22;97018.09;;;7.52;100.00
34297;BME280;20564;42.902;25.336;2023-04-27T04:14:49;97024.06;;;7.54;100.00
34297;BME280;20564;42.902;25.336;2023-04-27T04:17:17;97028.78;;;7.60;100.00
34297;BME280;20564;42.902;25.336;2023-04-27T04:19:47;97024.38;;;7.60;100.00
34297;BME280;20564;42.902;25.336;2023-04-27T04:22:17;97024.13;;;7.63;100.00
34297;BME280;20564;42.902;25.336;2023-04-27T04:24:44;97027.78;;;7.72;100.00
34297;BME280;20564;42.902;25.336;2023-04-27T04:27:17;97023.91;;;7.87;100.00
34297;BME280;20564;42.902;25.336;2023-04-27T04:29:44;97035.34;;;7.86;100.00
34297;BME280;20564;42.902;25.336;2023-04-27T04:32:18;97027.41;;;7.77;100.00
34297;BME280;20564;42.902;25.336;2023-04-27T04:34:48;97034.09;;;7.69;100.00
34297;BME280;20564;42.902;25.336;2023-04-27T04:37:22;97037.44;;;7.71;100.00
34297;BME280;20564;42.902;25.336;2023-04-27T04:40:02;97041.09;;;7.80;100.00
34297;BME280;20564;42.902;25.336;2023-04-27T04:42:35;97044.03;;;7.87;100.00
34297;BME280;20564;42.902;25.336;2023-04-27T04:45:04;97056.25;;;7.97;100.00
34297;BME280;20564;42.902;25.336;2023-04-27T04:47:33;97051.84;;;7.98;100.00
34297;BME280;20564;42.902;25.336;2023-04-27T04:50:04;97049.31;;;7.96;100.00
34297;BME280;20564;42.902;25.336;2023-04-27T04:52:43;97062.06;;;8.01;100.00
34297;BME280;20564;42.902;25.336;2023-04-27T04:55:13;97058.97;;;7.96;100.00
34297;BME280;20564;42.902;25.336;2023-04-27T04:57:43;97051.06;;;7.86;100.00
34297;BME280;20564;42.902;25.336;2023-04-27T05:00:10;97047.97;;;7.81;100.00
34297;BME280;20564;42.902;25.336;2023-04-27T05:02:39;97056.09;;;7.78;100.00
34297;BME280;20564;42.902;25.336;2023-04-27T05:05:08;97055.50;;;7.74;100.00
34297;BME280;20564;42.902;25.336;2023-04-27T05:07:35;97063.75;;;7.70;100.00
34297;BME280;20564;42.902;25.336;2023-04-27T05:10:02;97061.84;;;7.72;100.00
34297;BME280;20564;42.902;25.336;2023-04-27T05:12:30;97064.47;;;7.72;100.00
34297;BME280;20564;42.902;25.336;2023-04-27T05:14:57;97062.47;;;7.64;100.00
34297;BME280;20564;42.902;25.336;2023-04-27T05:17:25;97061.13;;;7.70;100.00
34297;BME280;20564;42.902;25.336;2023-04-27T05:19:52;97056.84;;;7.69;100.00
34297;BME280;20564;42.902;25.336;2023-04-27T05:22:19;97065.16;;;7.74;100.00
34297;BME280;20564;42.902;25.336;2023-04-27T05:24:49;97067.09;;;7.72;100.00
34297;BME280;20564;42.902;25.336;2023-04-27T05:27:17;97069.22;;;7.67;100.00
34297;BME280;20564;42.902;25.336;2023-04-27T05:29:47;97067.09;;;7.72;100.00
34297;BME280;20564;42.902;25.336;2023-04-27T05:32:18;97073.16;;;7.72;100.00
34297;BME280;20564;42.902;25.336;2023-04-27T05:34:49;97075.88;;;7.71;100.00
34297;BME280;20564;42.902;25.336;2023-04-27T05:37:16;97073.78;;;7.65;100.00
34297;BME280;20564;42.902;25.336;2023-04-27T05:39:43;97079.97;;;7.64;100.00
34297;BME280;20564;42.902;25.336;2023-04-27T05:42:11;97079.59;;;7.68;100.00
34297;BME280;20564;42.902;25.336;2023-04-27T05:44:38;97091.34;;;7.74;100.00
34297;BME280;20564;42.902;25.336;2023-04-27T05:47:05;97082.75;;;7.83;100.00
34297;BME280;20564;42.902;25.336;2023-04-27T05:49:35;97077.56;;;7.72;100.00
34297;BME280;20564;42.902;25.336;2023-04-27T05:52:06;97081.41;;;7.68;100.00
34297;BME280;20564;42.902;25.336;2023-04-27T05:54:33;97089.69;;;7.73;100.00
34297;BME280;20564;42.902;25.336;2023-04-27T05:57:00;97087.75;;;7.86;100.00
34297;BME280;20564;42.902;25.336;2023-04-27T05:59:27;97089.84;;;7.92;100.00
34297;BME280;20564;42.902;25.336;2023-04-27T06:01:54;97086.53;;;7.90;100.00
34297;BME280;20564;42.902;25.336;2023-04-27T06:04:22;97105.09;;;7.98;100.00
34297;BME280;20564;42.902;25.336;2023-04-27T06:06:49;97092.66;;;8.01;100.00
34297;BME280;20564;42.902;25.336;2023-04-27T06:09:16;97099.66;;;7.90;100.00
34297;BME280;20564;42.902;25.336;2023-04-27T06:11:46;97100.59;;;7.89;100.00
34297;BME280;20564;42.902;25.336;2023-04-27T06:14:17;97099.66;;;7.90;100.00
34297;BME280;20564;42.902;25.336;2023-04-27T06:16:44;97095.28;;;7.80;100.00
34297;BME280;20564;42.902;25.336;2023-04-27T06:19:11;97093.72;;;7.77;100.00
34297;BME280;20564;42.902;25.336;2023-04-27T06:21:38;97098.00;;;7.78;100.00
34297;BME280;20564;42.902;25.336;2023-04-27T06:24:05;97095.88;;;7.83;100.00
34297;BME280;20564;42.902;25.336;2023-04-27T06:26:32;97099.34;;;7.72;100.00
34297;BME280;20564;42.902;25.336;2023-04-27T06:28:59;97102.34;;;7.68;100.00
34297;BME280;20564;42.902;25.336;2023-04-27T06:31:26;97098.53;;;7.72;100.00
34297;BME280;20564;42.902;25.336;2023-04-27T06:33:59;97098.00;;;7.78;100.00
34297;BME280;20564;42.902;25.336;2023-04-27T06:36:26;97091.13;;;7.77;100.00
34297;BME280;20564;42.902;25.336;2023-04-27T06:38:54;97104.97;;;7.68;100.00
34297;BME280;20564;42.902;25.336;2023-04-27T06:41:23;97099.75;;;7.68;100.00
34297;BME280;20564;42.902;25.336;2023-04-27T06:43:51;97100.59;;;7.57;100.00
34297;BME280;20564;42.902;25.336;2023-04-27T06:46:18;97103.09;;;7.59;100.00
34297;BME280;20564;42.902;25.336;2023-04-27T06:48:46;97102.63;;;7.54;100.00
34297;BME280;20564;42.902;25.336;2023-04-27T06:51:13;97098.34;;;7.53;100.00
34297;BME280;20564;42.902;25.336;2023-04-27T06:53:39;97104.66;;;7.50;100.00
34297;BME280;20564;42.902;25.336;2023-04-27T06:56:09;97105.72;;;7.59;100.00
34297;BME280;20564;42.902;25.336;2023-04-27T06:58:37;97107.16;;;7.52;100.00
34297;BME280;20564;42.902;25.336;2023-04-27T07:01:04;97107.75;;;7.55;100.00
34297;BME280;20564;42.902;25.336;2023-04-27T07:03:33;97107.34;;;7.60;100.00
34297;BME280;20564;42.902;25.336;2023-04-27T07:06:01;97107.31;;;7.71;100.00
34297;BME280;20564;42.902;25.336;2023-04-27T07:08:28;97111.34;;;7.86;100.00
34297;BME280;20564;42.902;25.336;2023-04-27T07:10:54;97105.34;;;7.95;100.00
34297;BME280;20564;42.902;25.336;2023-04-27T07:13:21;97110.56;;;7.95;100.00
34297;BME280;20564;42.902;25.336;2023-04-27T07:15:54;97107.94;;;7.95;100.00
34297;BME280;20564;42.902;25.336;2023-04-27T07:18:23;97109.84;;;8.05;100.00
34297;BME280;20564;42.902;25.336;2023-04-27T07:20:56;97109.94;;;8.03;100.00
34297;BME280;20564;42.902;25.336;2023-04-27T07:23:23;97115.38;;;8.11;100.00
34297;BME280;20564;42.902;25.336;2023-04-27T07:25:51;97110.13;;;8.11;100.00
34297;BME280;20564;42.902;25.336;2023-04-27T07:28:17;97115.59;;;8.19;100.00
34297;BME280;20564;42.902;25.336;2023-04-27T07:30:44;97104.25;;;8.19;100.00
34297;BME280;20564;42.902;25.336;2023-04-27T07:33:11;97109.72;;;8.27;100.00
34297;BME280;20564;42.902;25.336;2023-04-27T07:35:39;97108.72;;;8.39;100.00
34297;BME280;20564;42.902;25.336;2023-04-27T07:38:05;97111.97;;;8.53;100.00
34297;BME280;20564;42.902;25.336;2023-04-27T07:40:33;97113.81;;;8.62;100.00
34297;BME280;20564;42.902;25.336;2023-04-27T07:43:00;97111.56;;;8.57;100.00
34297;BME280;20564;42.902;25.336;2023-04-27T07:45:29;97107.66;;;8.73;100.00
34297;BME280;20564;42.902;25.336;2023-04-27T07:47:59;97111.16;;;8.83;100.00
34297;BME280;20564;42.902;25.336;2023-04-27T07:50:28;97109.53;;;8.91;100.00
34297;BME280;20564;42.902;25.336;2023-04-27T07:52:56;97108.22;;;9.07;100.00
34297;BME280;20564;42.902;25.336;2023-04-27T07:55:24;97106.53;;;9.06;100.00
34297;BME280;20564;42.902;25.336;2023-04-27T07:57:55;97114.56;;;9.04;100.00
34297;BME280;20564;42.902;25.336;2023-04-27T08:00:23;97116.88;;;8.98;100.00
34297;BME280;20564;42.902;25.336;2023-04-27T08:02:52;97117.31;;;9.03;100.00
34297;BME280;20564;42.902;25.336;2023-04-27T08:05:23;97117.03;;;9.06;100.00
34297;BME280;20564;42.902;25.336;2023-04-27T08:07:50;97115.16;;;9.17;100.00
34297;BME280;20564;42.902;25.336;2023-04-27T08:10:20;97111.88;;;9.35;100.00
34297;BME280;20564;42.902;25.336;2023-04-27T08:12:48;97118.03;;;9.55;100.00
34297;BME280;20564;42.902;25.336;2023-04-27T08:15:14;97112.78;;;9.64;100.00
34297;BME280;20564;42.902;25.336;2023-04-27T08:17:41;97112.78;;;9.64;99.15
34297;BME280;20564;42.902;25.336;2023-04-27T08:20:10;97113.63;;;9.75;99.68
34297;BME280;20564;42.902;25.336;2023-04-27T08:22:46;97118.91;;;9.84;99.03
34297;BME280;20564;42.902;25.336;2023-04-27T08:25:14;97107.28;;;9.97;97.99
34297;BME280;20564;42.902;25.336;2023-04-27T08:27:42;97101.19;;;10.06;95.52
34297;BME280;20564;42.902;25.336;2023-04-27T08:30:09;97112.13;;;10.11;98.28
34297;BME280;20564;42.902;25.336;2023-04-27T08:32:37;97110.88;;;10.15;95.64
34297;BME280;20564;42.902;25.336;2023-04-27T08:35:05;97108.66;;;10.10;97.62
34297;BME280;20564;42.902;25.336;2023-04-27T08:37:34;97109.22;;;10.14;97.96
34297;BME280;20564;42.902;25.336;2023-04-27T08:40:11;97102.97;;;10.15;98.27
34297;BME280;20564;42.902;25.336;2023-04-27T08:42:54;97106.03;;;10.20;98.07
34297;BME280;20564;42.902;25.336;2023-04-27T08:45:26;97107.41;;;10.24;98.04
34297;BME280;20564;42.902;25.336;2023-04-27T08:47:53;97102.31;;;10.32;97.18
34297;BME280;20564;42.902;25.336;2023-04-27T08:50:21;97106.47;;;10.35;94.39
34297;BME280;20564;42.902;25.336;2023-04-27T08:52:50;97101.44;;;10.42;94.44
34297;BME280;20564;42.902;25.336;2023-04-27T08:55:18;97099.78;;;10.50;93.95
34297;BME280;20564;42.902;25.336;2023-04-27T08:57:57;97100.53;;;10.80;93.08
34297;BME280;20564;42.902;25.336;2023-04-27T09:00:25;97094.25;;;11.18;94.38
34297;BME280;20564;42.902;25.336;2023-04-27T09:02:52;97085.78;;;11.52;93.72
34297;BME280;20564;42.902;25.336;2023-04-27T09:05:44;97082.31;;;11.69;90.83
34297;BME280;20564;42.902;25.336;2023-04-27T09:08:49;97087.16;;;11.92;88.92
34297;BME280;20564;42.902;25.336;2023-04-27T09:11:33;97079.75;;;11.77;88.65
34297;BME280;20564;42.902;25.336;2023-04-27T09:14:18;97069.03;;;11.61;88.13
34297;BME280;20564;42.902;25.336;2023-04-27T09:16:55;97078.63;;;11.80;87.00
34297;BME280;20564;42.902;25.336;2023-04-27T09:19:29;97076.34;;;12.21;84.49
34297;BME280;20564;42.902;25.336;2023-04-27T09:22:23;97068.19;;;12.32;80.46
34297;BME280;20564;42.902;25.336;2023-04-27T09:24:51;97069.91;;;12.41;83.10
34297;BME280;20564;42.902;25.336;2023-04-27T09:27:19;97070.09;;;12.40;80.53
34297;BME280;20564;42.902;25.336;2023-04-27T09:29:47;97077.00;;;12.41;83.14
34297;BME280;20564;42.902;25.336;2023-04-27T09:32:18;97061.91;;;12.51;81.21
34297;BME280;20564;42.902;25.336;2023-04-27T09:34:46;97073.81;;;12.55;80.41
34297;BME280;20564;42.902;25.336;2023-04-27T09:37:13;97067.44;;;12.66;79.66
34297;BME280;20564;42.902;25.336;2023-04-27T09:39:41;97060.03;;;12.69;78.88
34297;BME280;20564;42.902;25.336;2023-04-27T09:42:08;97046.25;;;12.84;78.98
34297;BME280;20564;42.902;25.336;2023-04-27T09:44:36;97053.19;;;12.85;78.66
34297;BME280;20564;42.902;25.336;2023-04-27T09:47:03;97050.84;;;12.82;75.19
34297;BME280;20564;42.902;25.336;2023-04-27T09:49:36;97051.16;;;12.78;74.51
34297;BME280;20564;42.902;25.336;2023-04-27T09:52:03;97061.69;;;12.70;75.70
34297;BME280;20564;42.902;25.336;2023-04-27T09:54:32;97056.00;;;12.57;72.88
34297;BME280;20564;42.902;25.336;2023-04-27T09:57:16;97044.22;;;12.43;73.42
34297;BME280;20564;42.902;25.336;2023-04-27T10:02:16;97046.63;;;12.37;75.27
34297;BME280;20564;42.902;25.336;2023-04-27T10:07:30;97040.78;;;12.51;76.56
34297;BME280;20564;42.902;25.336;2023-04-27T10:10:02;97040.56;;;12.44;73.71
34297;BME280;20564;42.902;25.336;2023-04-27T10:12:34;97040.06;;;12.41;73.85
34297;BME280;20564;42.902;25.336;2023-04-27T10:15:13;97036.44;;;12.42;73.53
34297;BME280;20564;42.902;25.336;2023-04-27T10:17:51;97039.31;;;12.30;72.69
34297;BME280;20564;42.902;25.336;2023-04-27T10:20:35;97041.09;;;12.22;71.73
34297;BME280;20564;42.902;25.336;2023-04-27T10:23:03;97047.50;;;12.19;73.87
34297;BME280;20564;42.902;25.336;2023-04-27T10:25:42;97043.47;;;12.07;73.04
34297;BME280;20564;42.902;25.336;2023-04-27T10:28:19;97050.09;;;12.11;75.80
34297;BME280;20564;42.902;25.336;2023-04-27T10:30:47;97046.16;;;12.15;74.93
34297;BME280;20564;42.902;25.336;2023-04-27T10:33:17;97046.63;;;12.11;75.46
34297;BME280;20564;42.902;25.336;2023-04-27T10:35:54;97051.72;;;12.12;72.14
34297;BME280;20564;42.902;25.336;2023-04-27T10:38:27;97052.97;;;12.00;72.52
34297;BME280;20564;42.902;25.336;2023-04-27T10:40:56;97058.53;;;11.97;74.22
34297;BME280;20564;42.902;25.336;2023-04-27T10:43:28;97056.03;;;11.95;74.22
34297;BME280;20564;42.902;25.336;2023-04-27T10:46:16;97049.94;;;11.95;74.45
34297;BME280;20564;42.902;25.336;2023-04-27T10:48:44;97055.22;;;11.95;73.54
34297;BME280;20564;42.902;25.336;2023-04-27T10:51:16;97057.31;;;11.91;73.37
34297;BME280;20564;42.902;25.336;2023-04-27T10:53:43;97050.69;;;11.87;73.60
34297;BME280;20564;42.902;25.336;2023-04-27T10:56:11;97053.63;;;11.84;73.39
34297;BME280;20564;42.902;25.336;2023-04-27T10:58:38;97054.88;;;11.80;74.46
34297;BME280;20564;42.902;25.336;2023-04-27T11:01:07;97055.34;;;11.75;72.85
34297;BME280;20564;42.902;25.336;2023-04-27T11:03:34;97053.69;;;11.74;76.01
34297;BME280;20564;42.902;25.336;2023-04-27T11:06:04;97055.34;;;11.57;73.52
34297;BME280;20564;42.902;25.336;2023-04-27T11:08:31;97056.84;;;11.60;75.79
34297;BME280;20564;42.902;25.336;2023-04-27T11:11:02;97059.94;;;11.55;77.21
34297;BME280;20564;42.902;25.336;2023-04-27T11:13:31;97050.44;;;11.63;78.27
34297;BME280;20564;42.902;25.336;2023-04-27T11:16:03;97056.03;;;11.59;78.51
34297;BME280;20564;42.902;25.336;2023-04-27T11:18:31;97047.06;;;11.70;77.67
34297;BME280;20564;42.902;25.336;2023-04-27T11:23:37;97051.22;;;12.09;77.33
34297;BME280;20564;42.902;25.336;2023-04-27T11:26:21;97053.81;;;12.26;77.32
34297;BME280;20564;42.902;25.336;2023-04-27T11:29:06;97048.31;;;12.46;73.57
34297;BME280;20564;42.902;25.336;2023-04-27T11:31:44;97051.66;;;12.48;74.03
34297;BME280;20564;42.902;25.336;2023-04-27T11:34:22;97046.41;;;12.56;72.96
34297;BME280;20564;42.902;25.336;2023-04-27T11:37:00;97054.03;;;12.59;73.22
34297;BME280;20564;42.902;25.336;2023-04-27T11:39:44;97049.47;;;12.69;72.96
34297;BME280;20564;42.902;25.336;2023-04-27T11:42:21;97060.34;;;12.66;72.10
34297;BME280;20564;42.902;25.336;2023-04-27T11:44:59;97067.19;;;12.51;73.15
34297;BME280;20564;42.902;25.336;2023-04-27T11:47:29;97065.94;;;12.37;76.30
34297;BME280;20564;42.902;25.336;2023-04-27T11:49:59;97063.63;;;12.16;78.16
34297;BME280;20564;42.902;25.336;2023-04-27T11:52:34;97063.81;;;11.97;80.35
34297;BME280;20564;42.902;25.336;2023-04-27T11:55:02;97067.94;;;11.81;81.38
34297;BME280;20564;42.902;25.336;2023-04-27T11:57:33;97067.94;;;11.81;81.46
34297;BME280;20564;42.902;25.336;2023-04-27T12:00:03;97064.78;;;11.78;82.14
34297;BME280;20564;42.902;25.336;2023-04-27T12:02:41;97061.31;;;11.77;83.00
34297;BME280;20564;42.902;25.336;2023-04-27T12:05:10;97060.31;;;11.78;83.25
34297;BME280;20564;42.902;25.336;2023-04-27T12:07:39;97060.03;;;11.81;83.37
34297;BME280;20564;42.902;25.336;2023-04-27T12:10:07;97057.03;;;11.94;83.86
34297;BME280;20564;42.902;25.336;2023-04-27T12:12:34;97064.88;;;12.04;82.47
34297;BME280;20564;42.902;25.336;2023-04-27T12:15:01;97059.34;;;12.15;82.66
34297;BME280;20564;42.902;25.336;2023-04-27T12:17:29;97061.91;;;12.25;80.87
34297;BME280;20564;42.902;25.336;2023-04-27T12:20:03;97058.16;;;12.36;80.71
34297;BME280;20564;42.902;25.336;2023-04-27T12:22:31;97065.16;;;12.45;81.11
34297;BME280;20564;42.902;25.336;2023-04-27T12:24:58;97054.94;;;12.50;80.04
34297;BME280;20564;42.902;25.336;2023-04-27T12:27:26;97048.53;;;12.52;79.95
34297;BME280;20564;42.902;25.336;2023-04-27T12:29:53;97052.00;;;12.53;79.70
34297;BME280;20564;42.902;25.336;2023-04-27T12:32:20;97055.69;;;12.60;79.63
34297;BME280;20564;42.902;25.336;2023-04-27T12:34:51;97050.81;;;12.73;79.51
34297;BME280;20564;42.902;25.336;2023-04-27T12:37:20;97044.22;;;12.77;78.51
34297;BME280;20564;42.902;25.336;2023-04-27T12:39:49;97059.91;;;12.79;76.97
34297;BME280;20564;42.902;25.336;2023-04-27T12:42:15;97049.84;;;12.83;75.55
34297;BME280;20564;42.902;25.336;2023-04-27T12:44:45;97044.47;;;12.92;74.85
34297;BME280;20564;42.902;25.336;2023-04-27T12:47:12;97039.75;;;13.12;74.15
34297;BME280;20564;42.902;25.336;2023-04-27T12:49:59;97046.84;;;13.12;73.17
34297;BME280;20564;42.902;25.336;2023-04-27T12:52:26;97042.97;;;13.24;72.35
34297;BME280;20564;42.902;25.336;2023-04-27T12:54:53;97050.09;;;13.32;71.92
34297;BME280;20564;42.902;25.336;2023-04-27T12:57:23;97042.22;;;13.56;72.21
34297;BME280;20564;42.902;25.336;2023-04-27T12:59:50;97040.25;;;13.74;71.08
34297;BME280;20564;42.902;25.336;2023-04-27T13:02:17;97032.34;;;13.83;70.09
34297;BME280;20564;42.902;25.336;2023-04-27T13:04:45;97035.31;;;13.88;69.66
34297;BME280;20564;42.902;25.336;2023-04-27T13:07:15;97027.41;;;14.04;68.39
34297;BME280;20564;42.902;25.336;2023-04-27T13:09:42;97019.44;;;14.20;67.83
34297;BME280;20564;42.902;25.336;2023-04-27T13:12:24;97012.16;;;14.31;65.02
34297;BME280;20564;42.902;25.336;2023-04-27T13:15:00;97013.78;;;14.40;64.11